sensor_id;sensor_type;location;lat;lon;timestamp;P1;durP1;ratioP1;P2;durP2;ratioP2
5754;SDS011;2902;42.130;24.732;2023-04-02T00:07:55;2.37;;;2.27;;
5754;SDS011;2902;42.130;24.732;2023-04-02T00:10:26;2.40;;;2.30;;
5754;SDS011;2902;42.130;24.732;2023-04-02T00:13:00;3.20;;;2.70;;
5754;SDS011;2902;42.130;24.732;2023-04-02T00:15:29;2.97;;;2.77;;
5754;SDS011;2902;42.130;24.732;2023-04-02T00:17:56;2.90;;;2.70;;
5754;SDS011;2902;42.130;24.732;2023-04-02T00:20:23;3.17;;;2.97;;
5754;SDS011;2902;42.130;24.732;2023-04-02T00:22:52;3.07;;;2.87;;
5754;SDS011;2902;42.130;24.732;2023-04-02T00:25:20;2.70;;;2.50;;
5754;SDS011;2902;42.130;24.732;2023-04-02T00:27:48;3.00;;;2.83;;
5754;SDS011;2902;42.130;24.732;2023-04-02T00:30:16;3.03;;;2.83;;
5754;SDS011;2902;42.130;24.732;2023-04-02T00:32:43;2.57;;;2.47;;
5754;SDS011;2902;42.130;24.732;2023-04-02T00:35:12;2.90;;;2.80;;
5754;SDS011;2902;42.130;24.732;2023-04-02T00:37:45;3.00;;;2.80;;
5754;SDS011;2902;42.130;24.732;2023-04-02T00:40:13;2.93;;;2.73;;
5754;SDS011;2902;42.130;24.732;2023-04-02T00:42:44;3.20;;;2.97;;
5754;SDS011;2902;42.130;24.732;2023-04-02T00:45:15;2.30;;;2.20;;
5754;SDS011;2902;42.130;24.732;2023-04-02T00:47:48;3.17;;;2.97;;
5754;SDS011;2902;42.130;24.732;2023-04-02T00:50:21;3.17;;;2.90;;
5754;SDS011;2902;42.130;24.732;2023-04-02T00:52:53;2.97;;;2.77;;
5754;SDS011;2902;42.130;24.732;2023-04-02T00:55:23;2.87;;;2.67;;
5754;SDS011;2902;42.130;24.732;2023-04-02T00:57:52;2.40;;;2.30;;
5754;SDS011;2902;42.130;24.732;2023-04-02T01:00:23;2.90;;;2.70;;
5754;SDS011;2902;42.130;24.732;2023-04-02T01:03:14;3.00;;;2.80;;
5754;SDS011;2902;42.130;24.732;2023-04-02T01:05:55;6.17;;;2.87;;
5754;SDS011;2902;42.130;24.732;2023-04-02T01:08:27;3.20;;;2.97;;
5754;SDS011;2902;42.130;24.732;2023-04-02T01:11:01;3.23;;;3.03;;
5754;SDS011;2902;42.130;24.732;2023-04-02T01:13:33;2.70;;;2.60;;
5754;SDS011;2902;42.130;24.732;2023-04-02T01:16:08;2.70;;;2.50;;
5754;SDS011;2902;42.130;24.732;2023-04-02T01:18:44;2.43;;;2.33;;
5754;SDS011;2902;42.130;24.732;2023-04-02T01:21:28;2.40;;;2.30;;
5754;SDS011;2902;42.130;24.732;2023-04-02T01:24:01;2.77;;;2.50;;
5754;SDS011;2902;42.130;24.732;2023-04-02T01:26:35;2.30;;;2.20;;
5754;SDS011;2902;42.130;24.732;2023-04-02T01:29:19;2.77;;;2.67;;
5754;SDS011;2902;42.130;24.732;2023-04-02T01:31:49;2.40;;;2.30;;
5754;SDS011;2902;42.130;24.732;2023-04-02T01:34:19;2.63;;;2.43;;
5754;SDS011;2902;42.130;24.732;2023-04-02T01:36:54;2.50;;;2.40;;
5754;SDS011;2902;42.130;24.732;2023-04-02T01:39:38;3.00;;;2.90;;
5754;SDS011;2902;42.130;24.732;2023-04-02T01:42:16;2.87;;;2.70;;
5754;SDS011;2902;42.130;24.732;2023-04-02T01:44:49;2.57;;;2.47;;
5754;SDS011;2902;42.130;24.732;2023-04-02T01:47:17;2.50;;;2.40;;
5754;SDS011;2902;42.130;24.732;2023-04-02T01:49:47;2.47;;;2.10;;
5754;SDS011;2902;42.130;24.732;2023-04-02T01:52:15;2.33;;;2.23;;
5754;SDS011;2902;42.130;24.732;2023-04-02T01:54:45;2.00;;;1.90;;
5754;SDS011;2902;42.130;24.732;2023-04-02T01:57:12;2.40;;;2.30;;
5754;SDS011;2902;42.130;24.732;2023-04-02T01:59:41;1.90;;;1.90;;
5754;SDS011;2902;42.130;24.732;2023-04-02T02:02:10;2.37;;;1.87;;
5754;SDS011;2902;42.130;24.732;2023-04-02T02:04:38;2.20;;;2.10;;
5754;SDS011;2902;42.130;24.732;2023-04-02T02:07:05;5.23;;;2.50;;
5754;SDS011;2902;42.130;24.732;2023-04-02T02:09:39;1.83;;;1.73;;
5754;SDS011;2902;42.130;24.732;2023-04-02T02:12:08;1.87;;;1.77;;
5754;SDS011;2902;42.130;24.732;2023-04-02T02:14:37;2.30;;;2.10;;
5754;SDS011;2902;42.130;24.732;2023-04-02T02:17:04;1.80;;;1.70;;
5754;SDS011;2902;42.130;24.732;2023-04-02T02:19:39;1.70;;;1.60;;
5754;SDS011;2902;42.130;24.732;2023-04-02T02:22:10;3.30;;;1.80;;
5754;SDS011;2902;42.130;24.732;2023-04-02T02:24:42;1.77;;;1.70;;
5754;SDS011;2902;42.130;24.732;2023-04-02T02:27:28;2.03;;;1.73;;
5754;SDS011;2902;42.130;24.732;2023-04-02T02:30:22;1.83;;;1.80;;
5754;SDS011;2902;42.130;24.732;2023-04-02T02:32:54;1.80;;;1.70;;
5754;SDS011;2902;42.130;24.732;2023-04-02T02:35:29;1.50;;;1.50;;
5754;SDS011;2902;42.130;24.732;2023-04-02T02:38:09;1.80;;;1.80;;
5754;SDS011;2902;42.130;24.732;2023-04-02T02:40:53;1.70;;;1.70;;
5754;SDS011;2902;42.130;24.732;2023-04-02T02:43:26;2.07;;;1.97;;
5754;SDS011;2902;42.130;24.732;2023-04-02T02:45:53;1.97;;;1.87;;
5754;SDS011;2902;42.130;24.732;2023-04-02T02:48:22;2.00;;;2.00;;
5754;SDS011;2902;42.130;24.732;2023-04-02T02:50:54;2.03;;;1.87;;
5754;SDS011;2902;42.130;24.732;2023-04-02T02:53:22;2.10;;;2.00;;
5754;SDS011;2902;42.130;24.732;2023-04-02T02:55:51;2.23;;;2.13;;
5754;SDS011;2902;42.130;24.732;2023-04-02T02:58:22;2.30;;;2.20;;
5754;SDS011;2902;42.130;24.732;2023-04-02T03:00:51;2.00;;;1.90;;
5754;SDS011;2902;42.130;24.732;2023-04-02T03:03:19;1.83;;;1.83;;
5754;SDS011;2902;42.130;24.732;2023-04-02T03:05:49;4.27;;;2.00;;
5754;SDS011;2902;42.130;24.732;2023-04-02T03:08:23;2.17;;;2.07;;
5754;SDS011;2902;42.130;24.732;2023-04-02T03:10:55;1.60;;;1.60;;
5754;SDS011;2902;42.130;24.732;2023-04-02T03:13:28;1.70;;;1.70;;
5754;SDS011;2902;42.130;24.732;2023-04-02T03:16:00;2.20;;;2.10;;
5754;SDS011;2902;42.130;24.732;2023-04-02T03:18:35;2.43;;;2.33;;
5754;SDS011;2902;42.130;24.732;2023-04-02T03:21:11;2.40;;;2.30;;
5754;SDS011;2902;42.130;24.732;2023-04-02T03:23:46;2.00;;;1.90;;
5754;SDS011;2902;42.130;24.732;2023-04-02T03:26:17;2.10;;;2.00;;
5754;SDS011;2902;42.130;24.732;2023-04-02T03:28:49;1.97;;;1.87;;
5754;SDS011;2902;42.130;24.732;2023-04-02T03:31:22;2.70;;;2.17;;
5754;SDS011;2902;42.130;24.732;2023-04-02T03:33:54;2.30;;;2.20;;
5754;SDS011;2902;42.130;24.732;2023-04-02T03:36:24;2.20;;;2.03;;
5754;SDS011;2902;42.130;24.732;2023-04-02T03:38:59;2.27;;;2.17;;
5754;SDS011;2902;42.130;24.732;2023-04-02T03:41:37;14.43;;;9.60;;
5754;SDS011;2902;42.130;24.732;2023-04-02T03:44:14;7.57;;;6.13;;
5754;SDS011;2902;42.130;24.732;2023-04-02T03:46:47;5.37;;;3.47;;
5754;SDS011;2902;42.130;24.732;2023-04-02T03:49:23;2.60;;;2.40;;
5754;SDS011;2902;42.130;24.732;2023-04-02T03:51:54;2.43;;;2.33;;
5754;SDS011;2902;42.130;24.732;2023-04-02T03:54:26;2.27;;;2.17;;
5754;SDS011;2902;42.130;24.732;2023-04-02T03:56:54;8.13;;;2.87;;
5754;SDS011;2902;42.130;24.732;2023-04-02T03:59:23;2.60;;;2.10;;
5754;SDS011;2902;42.130;24.732;2023-04-02T04:01:57;3.30;;;2.43;;
5754;SDS011;2902;42.130;24.732;2023-04-02T04:04:27;3.13;;;2.57;;
5754;SDS011;2902;42.130;24.732;2023-04-02T04:06:56;2.60;;;2.50;;
5754;SDS011;2902;42.130;24.732;2023-04-02T04:09:28;2.43;;;2.20;;
5754;SDS011;2902;42.130;24.732;2023-04-02T04:12:01;2.70;;;2.53;;
5754;SDS011;2902;42.130;24.732;2023-04-02T04:14:39;2.80;;;2.63;;
5754;SDS011;2902;42.130;24.732;2023-04-02T04:17:13;6.27;;;2.40;;
5754;SDS011;2902;42.130;24.732;2023-04-02T04:19:49;2.67;;;2.37;;
5754;SDS011;2902;42.130;24.732;2023-04-02T04:22:21;3.80;;;2.87;;
5754;SDS011;2902;42.130;24.732;2023-04-02T04:24:55;3.27;;;2.50;;
5754;SDS011;2902;42.130;24.732;2023-04-02T04:27:23;6.70;;;3.27;;
5754;SDS011;2902;42.130;24.732;2023-04-02T04:29:59;2.43;;;2.27;;
5754;SDS011;2902;42.130;24.732;2023-04-02T04:32:30;4.03;;;2.10;;
5754;SDS011;2902;42.130;24.732;2023-04-02T04:35:03;3.17;;;2.13;;
5754;SDS011;2902;42.130;24.732;2023-04-02T04:37:40;2.57;;;2.40;;
5754;SDS011;2902;42.130;24.732;2023-04-02T04:40:15;2.10;;;2.00;;
5754;SDS011;2902;42.130;24.732;2023-04-02T04:42:48;3.57;;;2.23;;
5754;SDS011;2902;42.130;24.732;2023-04-02T04:45:29;2.63;;;2.00;;
5754;SDS011;2902;42.130;24.732;2023-04-02T04:48:06;1.90;;;1.70;;
5754;SDS011;2902;42.130;24.732;2023-04-02T04:50:39;3.43;;;2.10;;
5754;SDS011;2902;42.130;24.732;2023-04-02T04:53:14;2.53;;;2.30;;
5754;SDS011;2902;42.130;24.732;2023-04-02T04:55:43;2.40;;;2.30;;
5754;SDS011;2902;42.130;24.732;2023-04-02T04:58:15;2.80;;;2.00;;
5754;SDS011;2902;42.130;24.732;2023-04-02T05:00:50;2.20;;;2.10;;
5754;SDS011;2902;42.130;24.732;2023-04-02T05:03:26;2.40;;;2.30;;
5754;SDS011;2902;42.130;24.732;2023-04-02T05:06:00;3.40;;;2.20;;
5754;SDS011;2902;42.130;24.732;2023-04-02T05:08:34;2.13;;;2.03;;
5754;SDS011;2902;42.130;24.732;2023-04-02T05:11:09;9.07;;;2.90;;
5754;SDS011;2902;42.130;24.732;2023-04-02T05:13:41;10.23;;;4.53;;
5754;SDS011;2902;42.130;24.732;2023-04-02T05:16:14;122.97;;;24.43;;
5754;SDS011;2902;42.130;24.732;2023-04-02T05:18:44;18.10;;;11.07;;
5754;SDS011;2902;42.130;24.732;2023-04-02T05:21:18;12.77;;;6.47;;
5754;SDS011;2902;42.130;24.732;2023-04-02T05:23:49;7.13;;;5.77;;
5754;SDS011;2902;42.130;24.732;2023-04-02T05:26:23;4.73;;;4.43;;
5754;SDS011;2902;42.130;24.732;2023-04-02T05:28:55;9.03;;;7.13;;
5754;SDS011;2902;42.130;24.732;2023-04-02T05:31:27;7.93;;;6.17;;
5754;SDS011;2902;42.130;24.732;2023-04-02T05:34:00;90.03;;;12.67;;
5754;SDS011;2902;42.130;24.732;2023-04-02T05:36:28;21.03;;;6.47;;
5754;SDS011;2902;42.130;24.732;2023-04-02T05:38:56;10.33;;;6.67;;
5754;SDS011;2902;42.130;24.732;2023-04-02T05:41:26;18.37;;;13.23;;
5754;SDS011;2902;42.130;24.732;2023-04-02T05:43:57;13.03;;;11.80;;
5754;SDS011;2902;42.130;24.732;2023-04-02T05:46:33;11.73;;;7.30;;
5754;SDS011;2902;42.130;24.732;2023-04-02T05:49:03;5.50;;;5.10;;
5754;SDS011;2902;42.130;24.732;2023-04-02T05:51:34;5.40;;;3.63;;
5754;SDS011;2902;42.130;24.732;2023-04-02T05:54:10;4.43;;;3.70;;
5754;SDS011;2902;42.130;24.732;2023-04-02T05:56:48;6.27;;;4.73;;
5754;SDS011;2902;42.130;24.732;2023-04-02T05:59:20;3.97;;;2.60;;
5754;SDS011;2902;42.130;24.732;2023-04-02T06:01:52;10.43;;;4.70;;
5754;SDS011;2902;42.130;24.732;2023-04-02T06:04:24;3.40;;;3.20;;
5754;SDS011;2902;42.130;24.732;2023-04-02T06:06:57;15.27;;;4.70;;
5754;SDS011;2902;42.130;24.732;2023-04-02T06:09:36;4.60;;;4.20;;
5754;SDS011;2902;42.130;24.732;2023-04-02T06:12:12;2.50;;;2.40;;
5754;SDS011;2902;42.130;24.732;2023-04-02T06:14:45;5.30;;;3.93;;
5754;SDS011;2902;42.130;24.732;2023-04-02T06:17:12;7.63;;;6.93;;
5754;SDS011;2902;42.130;24.732;2023-04-02T06:19:40;8.90;;;5.63;;
5754;SDS011;2902;42.130;24.732;2023-04-02T06:22:08;7.77;;;6.40;;
5754;SDS011;2902;42.130;24.732;2023-04-02T06:24:44;6.00;;;4.67;;
5754;SDS011;2902;42.130;24.732;2023-04-02T06:27:16;9.67;;;6.97;;
5754;SDS011;2902;42.130;24.732;2023-04-02T06:29:46;4.00;;;3.67;;
5754;SDS011;2902;42.130;24.732;2023-04-02T06:32:17;4.97;;;4.00;;
5754;SDS011;2902;42.130;24.732;2023-04-02T06:34:48;9.33;;;6.97;;
5754;SDS011;2902;42.130;24.732;2023-04-02T06:37:18;6.43;;;5.83;;
5754;SDS011;2902;42.130;24.732;2023-04-02T06:39:48;8.00;;;3.47;;
5754;SDS011;2902;42.130;24.732;2023-04-02T06:42:18;6.60;;;3.27;;
5754;SDS011;2902;42.130;24.732;2023-04-02T06:44:46;4.67;;;2.90;;
5754;SDS011;2902;42.130;24.732;2023-04-02T06:47:15;3.60;;;3.30;;
5754;SDS011;2902;42.130;24.732;2023-04-02T06:49:50;5.83;;;3.30;;
5754;SDS011;2902;42.130;24.732;2023-04-02T06:52:20;3.70;;;3.50;;
5754;SDS011;2902;42.130;24.732;2023-04-02T06:54:51;2.73;;;2.53;;
5754;SDS011;2902;42.130;24.732;2023-04-02T06:57:19;4.63;;;2.30;;
5754;SDS011;2902;42.130;24.732;2023-04-02T06:59:45;2.80;;;2.10;;
5754;SDS011;2902;42.130;24.732;2023-04-02T07:02:18;3.90;;;3.50;;
5754;SDS011;2902;42.130;24.732;2023-04-02T07:04:53;2.00;;;1.90;;
5754;SDS011;2902;42.130;24.732;2023-04-02T07:07:23;2.60;;;1.43;;
5754;SDS011;2902;42.130;24.732;2023-04-02T07:09:50;5.37;;;1.90;;
5754;SDS011;2902;42.130;24.732;2023-04-02T07:12:20;1.70;;;1.60;;
5754;SDS011;2902;42.130;24.732;2023-04-02T07:14:48;1.80;;;1.70;;
5754;SDS011;2902;42.130;24.732;2023-04-02T07:17:15;1.60;;;1.47;;
5754;SDS011;2902;42.130;24.732;2023-04-02T07:19:42;15.00;;;2.57;;
5754;SDS011;2902;42.130;24.732;2023-04-02T07:22:13;15.27;;;2.50;;
5754;SDS011;2902;42.130;24.732;2023-04-02T07:24:39;2.07;;;1.97;;
5754;SDS011;2902;42.130;24.732;2023-04-02T07:27:08;2.10;;;1.90;;
5754;SDS011;2902;42.130;24.732;2023-04-02T07:29:36;3.70;;;2.93;;
5754;SDS011;2902;42.130;24.732;2023-04-02T07:32:06;10.90;;;3.00;;
5754;SDS011;2902;42.130;24.732;2023-04-02T07:34:33;2.43;;;2.20;;
5754;SDS011;2902;42.130;24.732;2023-04-02T07:37:00;4.27;;;2.20;;
5754;SDS011;2902;42.130;24.732;2023-04-02T07:39:27;3.23;;;2.03;;
5754;SDS011;2902;42.130;24.732;2023-04-02T07:41:55;4.27;;;2.40;;
5754;SDS011;2902;42.130;24.732;2023-04-02T07:44:23;2.17;;;1.97;;
5754;SDS011;2902;42.130;24.732;2023-04-02T07:46:51;2.37;;;2.27;;
5754;SDS011;2902;42.130;24.732;2023-04-02T07:49:18;4.70;;;1.87;;
5754;SDS011;2902;42.130;24.732;2023-04-02T07:51:45;3.57;;;1.93;;
5754;SDS011;2902;42.130;24.732;2023-04-02T07:54:12;4.30;;;2.27;;
5754;SDS011;2902;42.130;24.732;2023-04-02T07:56:38;2.67;;;2.10;;
5754;SDS011;2902;42.130;24.732;2023-04-02T07:59:05;1.90;;;1.80;;
5754;SDS011;2902;42.130;24.732;2023-04-02T08:01:32;3.60;;;1.83;;
5754;SDS011;2902;42.130;24.732;2023-04-02T08:04:01;1.80;;;1.70;;
5754;SDS011;2902;42.130;24.732;2023-04-02T08:06:29;2.07;;;1.90;;
5754;SDS011;2902;42.130;24.732;2023-04-02T08:08:56;1.60;;;1.50;;
5754;SDS011;2902;42.130;24.732;2023-04-02T08:11:23;1.43;;;1.10;;
5754;SDS011;2902;42.130;24.732;2023-04-02T08:13:50;1.30;;;1.20;;
5754;SDS011;2902;42.130;24.732;2023-04-02T08:16:17;10.43;;;1.90;;
5754;SDS011;2902;42.130;24.732;2023-04-02T08:18:43;3.13;;;2.93;;
5754;SDS011;2902;42.130;24.732;2023-04-02T08:21:13;14.20;;;5.33;;
5754;SDS011;2902;42.130;24.732;2023-04-02T08:23:40;4.73;;;3.10;;
5754;SDS011;2902;42.130;24.732;2023-04-02T08:26:06;2.93;;;1.97;;
5754;SDS011;2902;42.130;24.732;2023-04-02T08:28:33;1.40;;;1.30;;
5754;SDS011;2902;42.130;24.732;2023-04-02T08:31:00;2.20;;;2.10;;
5754;SDS011;2902;42.130;24.732;2023-04-02T08:33:28;2.30;;;1.50;;
5754;SDS011;2902;42.130;24.732;2023-04-02T08:35:55;1.33;;;1.30;;
5754;SDS011;2902;42.130;24.732;2023-04-02T08:38:23;0.93;;;0.93;;
5754;SDS011;2902;42.130;24.732;2023-04-02T08:40:51;1.10;;;1.10;;
5754;SDS011;2902;42.130;24.732;2023-04-02T08:43:29;2.00;;;1.60;;
5754;SDS011;2902;42.130;24.732;2023-04-02T08:46:08;1.87;;;0.97;;
5754;SDS011;2902;42.130;24.732;2023-04-02T08:48:39;1.20;;;1.20;;
5754;SDS011;2902;42.130;24.732;2023-04-02T08:51:14;1.87;;;1.50;;
5754;SDS011;2902;42.130;24.732;2023-04-02T08:53:48;2.23;;;1.40;;
5754;SDS011;2902;42.130;24.732;2023-04-02T08:56:17;1.40;;;1.30;;
5754;SDS011;2902;42.130;24.732;2023-04-02T08:58:50;1.03;;;1.03;;
5754;SDS011;2902;42.130;24.732;2023-04-02T09:01:26;1.03;;;1.03;;
5754;SDS011;2902;42.130;24.732;2023-04-02T09:04:01;1.27;;;1.20;;
5754;SDS011;2902;42.130;24.732;2023-04-02T09:06:32;2.73;;;1.07;;
5754;SDS011;2902;42.130;24.732;2023-04-02T09:09:01;0.80;;;0.80;;
5754;SDS011;2902;42.130;24.732;2023-04-02T09:11:30;1.43;;;1.07;;
5754;SDS011;2902;42.130;24.732;2023-04-02T09:14:02;1.00;;;1.00;;
5754;SDS011;2902;42.130;24.732;2023-04-02T09:16:38;0.90;;;0.60;;
5754;SDS011;2902;42.130;24.732;2023-04-02T09:19:16;3.57;;;1.00;;
5754;SDS011;2902;42.130;24.732;2023-04-02T09:21:47;0.70;;;0.70;;
5754;SDS011;2902;42.130;24.732;2023-04-02T09:24:25;0.80;;;0.80;;
5754;SDS011;2902;42.130;24.732;2023-04-02T09:26:52;2.80;;;1.10;;
5754;SDS011;2902;42.130;24.732;2023-04-02T09:29:30;5.03;;;1.10;;
5754;SDS011;2902;42.130;24.732;2023-04-02T09:32:07;2.30;;;1.00;;
5754;SDS011;2902;42.130;24.732;2023-04-02T09:34:44;1.00;;;1.00;;
5754;SDS011;2902;42.130;24.732;2023-04-02T09:37:13;1.63;;;1.53;;
5754;SDS011;2902;42.130;24.732;2023-04-02T09:39:43;3.23;;;1.20;;
5754;SDS011;2902;42.130;24.732;2023-04-02T09:45:10;1.27;;;1.20;;
5754;SDS011;2902;42.130;24.732;2023-04-02T09:47:39;7.20;;;1.97;;
5754;SDS011;2902;42.130;24.732;2023-04-02T09:50:13;0.90;;;0.90;;
5754;SDS011;2902;42.130;24.732;2023-04-02T09:52:50;0.70;;;0.70;;
5754;SDS011;2902;42.130;24.732;2023-04-02T09:55:19;0.90;;;0.90;;
5754;SDS011;2902;42.130;24.732;2023-04-02T09:57:48;9.50;;;1.20;;
5754;SDS011;2902;42.130;24.732;2023-04-02T10:00:18;1.57;;;1.03;;
5754;SDS011;2902;42.130;24.732;2023-04-02T10:02:58;3.53;;;0.80;;
5754;SDS011;2902;42.130;24.732;2023-04-02T10:05:27;0.83;;;0.77;;
5754;SDS011;2902;42.130;24.732;2023-04-02T10:08:04;1.97;;;0.80;;
5754;SDS011;2902;42.130;24.732;2023-04-02T10:10:36;2.00;;;1.17;;
5754;SDS011;2902;42.130;24.732;2023-04-02T10:13:08;0.70;;;0.70;;
5754;SDS011;2902;42.130;24.732;2023-04-02T10:15:47;0.70;;;0.70;;
5754;SDS011;2902;42.130;24.732;2023-04-02T10:18:20;0.70;;;0.70;;
5754;SDS011;2902;42.130;24.732;2023-04-02T10:20:54;1.47;;;0.67;;
5754;SDS011;2902;42.130;24.732;2023-04-02T10:23:22;1.03;;;0.87;;
5754;SDS011;2902;42.130;24.732;2023-04-02T10:25:53;3.27;;;1.30;;
5754;SDS011;2902;42.130;24.732;2023-04-02T10:28:28;7.73;;;1.13;;
5754;SDS011;2902;42.130;24.732;2023-04-02T10:31:07;0.53;;;0.53;;
5754;SDS011;2902;42.130;24.732;2023-04-02T10:33:41;1.13;;;0.73;;
5754;SDS011;2902;42.130;24.732;2023-04-02T10:36:18;1.23;;;0.70;;
5754;SDS011;2902;42.130;24.732;2023-04-02T10:38:54;0.50;;;0.50;;
5754;SDS011;2902;42.130;24.732;2023-04-02T10:41:30;2.40;;;0.80;;
5754;SDS011;2902;42.130;24.732;2023-04-02T10:44:04;2.27;;;1.00;;
5754;SDS011;2902;42.130;24.732;2023-04-02T10:46:59;1.67;;;0.80;;
5754;SDS011;2902;42.130;24.732;2023-04-02T10:49:38;0.70;;;0.70;;
5754;SDS011;2902;42.130;24.732;2023-04-02T10:52:09;0.77;;;0.77;;
5754;SDS011;2902;42.130;24.732;2023-04-02T10:54:43;1.73;;;0.73;;
5754;SDS011;2902;42.130;24.732;2023-04-02T10:57:18;0.60;;;0.60;;
5754;SDS011;2902;42.130;24.732;2023-04-02T10:59:52;0.73;;;0.73;;
5754;SDS011;2902;42.130;24.732;2023-04-02T11:02:31;1.50;;;0.70;;
5754;SDS011;2902;42.130;24.732;2023-04-02T11:05:06;1.50;;;0.63;;
5754;SDS011;2902;42.130;24.732;2023-04-02T11:07:45;0.87;;;0.70;;
5754;SDS011;2902;42.130;24.732;2023-04-02T11:10:18;9.00;;;1.57;;
5754;SDS011;2902;42.130;24.732;2023-04-02T11:12:50;5.73;;;0.70;;
5754;SDS011;2902;42.130;24.732;2023-04-02T11:15:21;0.70;;;0.70;;
5754;SDS011;2902;42.130;24.732;2023-04-02T11:17:49;0.80;;;0.80;;
5754;SDS011;2902;42.130;24.732;2023-04-02T11:23:09;1.10;;;1.10;;
5754;SDS011;2902;42.130;24.732;2023-04-02T11:25:38;1.07;;;1.00;;
5754;SDS011;2902;42.130;24.732;2023-04-02T11:28:16;0.97;;;0.97;;
5754;SDS011;2902;42.130;24.732;2023-04-02T11:30:52;0.70;;;0.67;;
5754;SDS011;2902;42.130;24.732;2023-04-02T11:33:24;1.17;;;0.97;;
5754;SDS011;2902;42.130;24.732;2023-04-02T11:36:07;1.80;;;0.90;;
5754;SDS011;2902;42.130;24.732;2023-04-02T11:39:12;1.30;;;0.90;;
5754;SDS011;2902;42.130;24.732;2023-04-02T11:42:24;0.90;;;0.77;;
5754;SDS011;2902;42.130;24.732;2023-04-02T11:44:58;1.80;;;1.23;;
5754;SDS011;2902;42.130;24.732;2023-04-02T11:50:46;1.97;;;1.73;;
5754;SDS011;2902;42.130;24.732;2023-04-02T11:53:17;6.80;;;1.60;;
5754;SDS011;2902;42.130;24.732;2023-04-02T11:56:04;3.03;;;2.83;;
5754;SDS011;2902;42.130;24.732;2023-04-02T11:58:45;2.03;;;1.93;;
5754;SDS011;2902;42.130;24.732;2023-04-02T12:01:31;4.03;;;2.50;;
5754;SDS011;2902;42.130;24.732;2023-04-02T12:07:08;4.07;;;1.33;;
5754;SDS011;2902;42.130;24.732;2023-04-02T12:09:59;3.13;;;1.20;;
5754;SDS011;2902;42.130;24.732;2023-04-02T12:12:31;1.67;;;1.57;;
5754;SDS011;2902;42.130;24.732;2023-04-02T12:14:59;2.23;;;1.27;;
5754;SDS011;2902;42.130;24.732;2023-04-02T12:17:29;4.60;;;2.10;;
5754;SDS011;2902;42.130;24.732;2023-04-02T12:19:57;7.03;;;1.30;;
5754;SDS011;2902;42.130;24.732;2023-04-02T12:22:26;6.47;;;1.97;;
5754;SDS011;2902;42.130;24.732;2023-04-02T12:24:55;1.10;;;0.70;;
5754;SDS011;2902;42.130;24.732;2023-04-02T12:27:26;2.83;;;0.80;;
5754;SDS011;2902;42.130;24.732;2023-04-02T12:29:54;4.10;;;3.10;;
5754;SDS011;2902;42.130;24.732;2023-04-02T12:32:36;8.03;;;1.00;;
5754;SDS011;2902;42.130;24.732;2023-04-02T12:35:04;1.17;;;1.07;;
5754;SDS011;2902;42.130;24.732;2023-04-02T12:37:32;0.80;;;0.70;;
5754;SDS011;2902;42.130;24.732;2023-04-02T12:40:00;3.57;;;2.20;;
5754;SDS011;2902;42.130;24.732;2023-04-02T12:42:31;1.73;;;1.63;;
5754;SDS011;2902;42.130;24.732;2023-04-02T12:44:59;1.17;;;1.17;;
5754;SDS011;2902;42.130;24.732;2023-04-02T12:47:27;5.80;;;1.30;;
5754;SDS011;2902;42.130;24.732;2023-04-02T12:49:56;1.37;;;1.27;;
5754;SDS011;2902;42.130;24.732;2023-04-02T12:52:25;2.33;;;2.13;;
5754;SDS011;2902;42.130;24.732;2023-04-02T12:54:54;2.43;;;2.23;;
5754;SDS011;2902;42.130;24.732;2023-04-02T12:57:32;2.33;;;2.23;;
5754;SDS011;2902;42.130;24.732;2023-04-02T13:02:58;1.93;;;1.10;;
5754;SDS011;2902;42.130;24.732;2023-04-02T13:05:32;1.00;;;1.00;;
5754;SDS011;2902;42.130;24.732;2023-04-02T13:08:01;1.90;;;0.90;;
5754;SDS011;2902;42.130;24.732;2023-04-02T13:10:29;2.63;;;1.00;;
5754;SDS011;2902;42.130;24.732;2023-04-02T13:12:56;0.70;;;0.70;;
5754;SDS011;2902;42.130;24.732;2023-04-02T13:15:26;1.80;;;1.70;;
5754;SDS011;2902;42.130;24.732;2023-04-02T13:18:02;0.70;;;0.70;;
5754;SDS011;2902;42.130;24.732;2023-04-02T13:20:33;3.53;;;1.30;;
5754;SDS011;2902;42.130;24.732;2023-04-02T13:23:02;0.80;;;0.80;;
5754;SDS011;2902;42.130;24.732;2023-04-02T13:25:50;1.70;;;0.70;;
5754;SDS011;2902;42.130;24.732;2023-04-02T13:28:17;0.70;;;0.70;;
5754;SDS011;2902;42.130;24.732;2023-04-02T13:30:43;0.67;;;0.67;;
5754;SDS011;2902;42.130;24.732;2023-04-02T13:33:11;0.73;;;0.73;;
5754;SDS011;2902;42.130;24.732;2023-04-02T13:35:39;4.83;;;1.37;;
5754;SDS011;2902;42.130;24.732;2023-04-02T13:38:06;12.87;;;1.53;;
5754;SDS011;2902;42.130;24.732;2023-04-02T13:40:33;0.93;;;0.67;;
5754;SDS011;2902;42.130;24.732;2023-04-02T13:43:01;0.67;;;0.60;;
5754;SDS011;2902;42.130;24.732;2023-04-02T13:45:30;0.67;;;0.67;;
5754;SDS011;2902;42.130;24.732;2023-04-02T13:47:58;5.23;;;1.23;;
5754;SDS011;2902;42.130;24.732;2023-04-02T13:50:26;4.90;;;1.13;;
5754;SDS011;2902;42.130;24.732;2023-04-02T13:52:57;0.80;;;0.80;;
5754;SDS011;2902;42.130;24.732;2023-04-02T13:55:26;2.20;;;0.80;;
5754;SDS011;2902;42.130;24.732;2023-04-02T13:57:54;0.67;;;0.67;;
5754;SDS011;2902;42.130;24.732;2023-04-02T14:00:22;1.00;;;0.90;;
5754;SDS011;2902;42.130;24.732;2023-04-02T14:02:52;14.40;;;1.50;;
5754;SDS011;2902;42.130;24.732;2023-04-02T14:05:26;2.53;;;1.30;;
5754;SDS011;2902;42.130;24.732;2023-04-02T14:08:06;1.67;;;1.03;;
5754;SDS011;2902;42.130;24.732;2023-04-02T14:10:48;2.20;;;1.00;;
5754;SDS011;2902;42.130;24.732;2023-04-02T14:13:30;2.07;;;1.90;;
5754;SDS011;2902;42.130;24.732;2023-04-02T14:16:13;2.30;;;1.03;;
5754;SDS011;2902;42.130;24.732;2023-04-02T14:18:52;2.07;;;0.90;;
5754;SDS011;2902;42.130;24.732;2023-04-02T14:21:30;5.33;;;1.60;;
5754;SDS011;2902;42.130;24.732;2023-04-02T14:24:14;1.17;;;1.00;;
5754;SDS011;2902;42.130;24.732;2023-04-02T14:26:48;1.40;;;1.30;;
5754;SDS011;2902;42.130;24.732;2023-04-02T14:29:30;1.53;;;1.20;;
5754;SDS011;2902;42.130;24.732;2023-04-02T14:32:07;0.80;;;0.80;;
5754;SDS011;2902;42.130;24.732;2023-04-02T14:34:41;0.90;;;0.90;;
5754;SDS011;2902;42.130;24.732;2023-04-02T14:37:16;1.27;;;1.00;;
5754;SDS011;2902;42.130;24.732;2023-04-02T14:39:52;0.90;;;0.80;;
5754;SDS011;2902;42.130;24.732;2023-04-02T14:42:29;4.03;;;1.00;;
5754;SDS011;2902;42.130;24.732;2023-04-02T14:45:00;0.93;;;0.90;;
5754;SDS011;2902;42.130;24.732;2023-04-02T14:47:34;1.07;;;1.00;;
5754;SDS011;2902;42.130;24.732;2023-04-02T14:50:05;3.30;;;3.00;;
5754;SDS011;2902;42.130;24.732;2023-04-02T14:52:37;1.00;;;1.00;;
5754;SDS011;2902;42.130;24.732;2023-04-02T14:55:10;4.93;;;1.37;;
5754;SDS011;2902;42.130;24.732;2023-04-02T14:57:45;3.73;;;1.00;;
5754;SDS011;2902;42.130;24.732;2023-04-02T15:00:23;4.77;;;1.20;;
5754;SDS011;2902;42.130;24.732;2023-04-02T15:02:54;5.03;;;2.93;;
5754;SDS011;2902;42.130;24.732;2023-04-02T15:05:26;6.00;;;3.40;;
5754;SDS011;2902;42.130;24.732;2023-04-02T15:07:59;1.20;;;1.20;;
5754;SDS011;2902;42.130;24.732;2023-04-02T15:10:32;1.63;;;1.10;;
5754;SDS011;2902;42.130;24.732;2023-04-02T15:13:02;1.83;;;0.90;;
5754;SDS011;2902;42.130;24.732;2023-04-02T15:15:37;3.43;;;1.70;;
5754;SDS011;2902;42.130;24.732;2023-04-02T15:18:08;3.33;;;2.13;;
5754;SDS011;2902;42.130;24.732;2023-04-02T15:20:39;1.73;;;1.63;;
5754;SDS011;2902;42.130;24.732;2023-04-02T15:23:14;3.50;;;1.50;;
5754;SDS011;2902;42.130;24.732;2023-04-02T15:25:52;3.07;;;2.87;;
5754;SDS011;2902;42.130;24.732;2023-04-02T15:28:27;2.50;;;2.40;;
5754;SDS011;2902;42.130;24.732;2023-04-02T15:31:00;2.53;;;2.33;;
5754;SDS011;2902;42.130;24.732;2023-04-02T15:33:39;2.77;;;2.57;;
5754;SDS011;2902;42.130;24.732;2023-04-02T15:39:18;3.40;;;1.93;;
5754;SDS011;2902;42.130;24.732;2023-04-02T15:41:59;3.67;;;3.37;;
5754;SDS011;2902;42.130;24.732;2023-04-02T15:44:35;2.77;;;2.57;;
5754;SDS011;2902;42.130;24.732;2023-04-02T15:47:13;5.40;;;3.57;;
5754;SDS011;2902;42.130;24.732;2023-04-02T15:49:48;3.47;;;1.53;;
5754;SDS011;2902;42.130;24.732;2023-04-02T15:52:24;1.30;;;1.20;;
5754;SDS011;2902;42.130;24.732;2023-04-02T15:55:08;3.27;;;1.20;;
5754;SDS011;2902;42.130;24.732;2023-04-02T15:57:54;1.30;;;1.20;;